createdAt,value
2023-05-21T00:00:45.569Z,17.40
2023-05-21T00:03:13.771Z,17.29
2023-05-21T00:05:40.972Z,17.35
2023-05-21T00:08:07.568Z,17.32
2023-05-21T00:10:34.181Z,17.32
2023-05-21T00:13:00.686Z,17.30
2023-05-21T00:15:27.120Z,17.31
2023-05-21T00:17:53.692Z,17.32
2023-05-21T00:20:20.178Z,17.31
2023-05-21T00:22:48.187Z,17.22
2023-05-21T00:25:17.293Z,17.20
2023-05-21T00:27:43.756Z,17.11
2023-05-21T00:30:10.462Z,17.11
2023-05-21T00:32:37.643Z,17.11
2023-05-21T00:35:04.392Z,17.01
2023-05-21T00:37:34.062Z,17.02
2023-05-21T00:40:01.724Z,17.04
2023-05-21T00:42:30.640Z,17.04
2023-05-21T00:44:57.657Z,16.98
2023-05-21T00:47:24.369Z,16.84
2023-05-21T00:49:53.316Z,16.85
2023-05-21T00:52:20.355Z,16.79
2023-05-21T00:54:49.415Z,16.69
2023-05-21T00:57:17.866Z,16.69
2023-05-21T00:59:44.548Z,16.64
2023-05-21T01:02:14.253Z,16.72
2023-05-21T01:04:40.857Z,16.74
2023-05-21T01:07:09.476Z,16.74
2023-05-21T01:09:36.110Z,16.74
2023-05-21T01:12:06.469Z,16.83
2023-05-21T01:14:34.151Z,16.88
2023-05-21T01:17:02.191Z,16.84
2023-05-21T01:19:29.086Z,16.81
2023-05-21T01:22:00.801Z,16.79
2023-05-21T01:24:27.218Z,16.76
2023-05-21T01:26:53.858Z,16.60
2023-05-21T01:29:20.767Z,16.64
2023-05-21T01:32:05.766Z,16.70
2023-05-21T01:35:05.073Z,16.56
2023-05-21T01:37:45.980Z,16.64
2023-05-21T01:40:52.036Z,16.67
2023-05-21T01:43:19.798Z,16.69
2023-05-21T01:45:47.658Z,16.65
2023-05-21T01:48:14.951Z,16.68
2023-05-21T01:50:42.925Z,16.64
2023-05-21T01:53:09.450Z,16.62
2023-05-21T01:55:39.506Z,16.57
2023-05-21T01:58:05.987Z,16.53
2023-05-21T02:00:32.668Z,16.54
2023-05-21T02:02:59.700Z,16.56
2023-05-21T02:05:26.293Z,16.56
2023-05-21T02:07:52.788Z,16.45
2023-05-21T02:10:19.481Z,16.55
2023-05-21T02:12:46.221Z,16.44
2023-05-21T02:15:14.271Z,16.48
2023-05-21T02:17:42.346Z,16.49
2023-05-21T02:20:17.998Z,16.50
2023-05-21T02:22:46.874Z,16.50
2023-05-21T02:25:18.279Z,16.33
2023-05-21T02:27:46.552Z,16.29
2023-05-21T02:30:14.788Z,16.25
2023-05-21T02:32:45.043Z,16.26
2023-05-21T02:35:12.926Z,16.13
2023-05-21T02:37:40.583Z,16.06
2023-05-21T02:40:07.902Z,16.01
2023-05-21T02:42:36.474Z,16.07
2023-05-21T02:45:03.019Z,15.97
2023-05-21T02:47:29.489Z,16.01
2023-05-21T02:49:59.720Z,15.94
2023-05-21T02:52:26.274Z,15.78
2023-05-21T02:54:54.093Z,15.72
2023-05-21T02:57:20.525Z,15.80
2023-05-21T02:59:46.961Z,15.77
2023-05-21T03:02:13.538Z,15.79
2023-05-21T03:04:46.236Z,15.58
2023-05-21T03:07:14.427Z,15.68
2023-05-21T03:09:42.044Z,15.56
2023-05-21T03:12:09.187Z,15.66
2023-05-21T03:14:38.678Z,15.50
2023-05-21T03:17:08.536Z,15.41
2023-05-21T03:19:35.942Z,15.42
2023-05-21T03:22:04.488Z,15.45
2023-05-21T03:24:31.773Z,15.45
2023-05-21T03:26:59.241Z,15.35
2023-05-21T03:29:25.718Z,15.30
2023-05-21T03:31:53.898Z,15.35
2023-05-21T03:34:20.788Z,15.26
2023-05-21T03:36:47.836Z,15.18
2023-05-21T03:39:14.486Z,15.15
2023-05-21T03:41:41.009Z,15.14
2023-05-21T03:44:07.652Z,15.18
2023-05-21T03:46:34.296Z,15.18
2023-05-21T03:49:00.868Z,15.13
2023-05-21T03:51:27.647Z,15.15
2023-05-21T03:53:54.136Z,15.16
2023-05-21T03:56:21.568Z,15.15
2023-05-21T03:58:48.182Z,15.04
2023-05-21T04:01:14.645Z,14.95
2023-05-21T04:03:41.427Z,15.02
2023-05-21T04:06:10.167Z,14.88
2023-05-21T04:08:37.941Z,14.93
2023-05-21T04:11:04.436Z,15.01
2023-05-21T04:13:30.907Z,14.93
2023-05-21T04:15:57.378Z,14.78
2023-05-21T04:18:25.849Z,14.82
2023-05-21T04:20:52.675Z,14.84
2023-05-21T04:23:19.206Z,14.66
2023-05-21T04:25:45.697Z,14.69
2023-05-21T04:28:12.192Z,14.63
2023-05-21T04:30:38.679Z,14.70
2023-05-21T04:33:05.171Z,14.70
2023-05-21T04:35:31.893Z,14.71
2023-05-21T04:37:58.385Z,14.74
2023-05-21T04:40:24.820Z,14.71
2023-05-21T04:42:51.546Z,14.73
2023-05-21T04:45:18.051Z,14.78
2023-05-21T04:47:44.570Z,14.83
2023-05-21T04:50:11.059Z,14.84
2023-05-21T04:52:40.213Z,14.82
2023-05-21T04:55:09.994Z,14.83
2023-05-21T04:57:36.933Z,14.85
2023-05-21T05:00:06.444Z,14.91
2023-05-21T05:02:32.899Z,14.86
2023-05-21T05:04:59.859Z,14.95
2023-05-21T05:07:26.724Z,14.99
2023-05-21T05:09:53.258Z,15.08
2023-05-21T05:12:19.722Z,15.06
2023-05-21T05:14:46.190Z,15.07
2023-05-21T05:17:15.235Z,15.06
2023-05-21T05:19:41.836Z,15.11
2023-05-21T05:22:17.422Z,15.17
2023-05-21T05:24:43.959Z,15.28
2023-05-21T05:27:10.540Z,15.30
2023-05-21T05:29:37.007Z,15.23
2023-05-21T05:32:06.280Z,15.26
2023-05-21T05:34:32.831Z,15.09
2023-05-21T05:36:59.261Z,15.09
2023-05-21T05:39:25.747Z,15.15
2023-05-21T05:41:52.191Z,15.19
2023-05-21T05:44:18.616Z,15.16
2023-05-21T05:46:54.188Z,15.21
2023-05-21T05:49:20.770Z,15.05
2023-05-21T05:51:47.485Z,15.17
2023-05-21T05:54:13.950Z,15.32
2023-05-21T05:56:40.478Z,15.46
2023-05-21T05:59:06.929Z,15.58
2023-05-21T06:01:36.717Z,15.68
2023-05-21T06:04:03.350Z,15.75
2023-05-21T06:06:29.877Z,15.79
2023-05-21T06:08:56.407Z,15.97
2023-05-21T06:11:22.903Z,16.10
2023-05-21T06:13:49.400Z,16.12
2023-05-21T06:16:15.924Z,16.39
2023-05-21T06:18:42.518Z,16.72
2023-05-21T06:21:11.033Z,16.99
2023-05-21T06:23:38.055Z,17.34
2023-05-21T06:26:04.847Z,17.80
2023-05-21T06:28:31.278Z,18.22
2023-05-21T06:30:57.762Z,18.46
2023-05-21T06:33:24.319Z,18.67
2023-05-21T06:35:50.805Z,18.51
2023-05-21T06:38:17.245Z,18.99
2023-05-21T06:40:44.711Z,19.18
2023-05-21T06:43:11.245Z,18.85
2023-05-21T06:45:38.210Z,19.01
2023-05-21T06:48:05.205Z,19.38
2023-05-21T06:50:31.759Z,19.74
2023-05-21T06:52:58.453Z,20.07
2023-05-21T06:55:24.889Z,20.28
2023-05-21T06:57:51.325Z,20.44
2023-05-21T07:00:18.545Z,20.52
2023-05-21T07:02:45.083Z,20.78
2023-05-21T07:05:11.690Z,20.80
2023-05-21T07:07:38.208Z,21.13
2023-05-21T07:10:05.217Z,20.98
2023-05-21T07:12:31.722Z,20.86
2023-05-21T07:14:59.331Z,21.02
2023-05-21T07:17:26.248Z,20.72
2023-05-21T07:19:52.820Z,21.09
2023-05-21T07:22:19.363Z,20.90
2023-05-21T07:24:48.932Z,21.05
2023-05-21T07:27:25.191Z,21.21
2023-05-21T07:29:53.873Z,20.99
2023-05-21T07:32:21.699Z,20.82
2023-05-21T07:34:52.108Z,20.71
2023-05-21T07:37:20.752Z,20.86
2023-05-21T07:39:47.272Z,20.66
2023-05-21T07:42:13.886Z,20.76
2023-05-21T07:44:40.420Z,20.84
2023-05-21T07:47:06.872Z,20.89
2023-05-21T07:49:33.312Z,20.71
2023-05-21T07:51:59.815Z,20.68
2023-05-21T07:54:26.343Z,20.93
2023-05-21T07:56:52.834Z,20.97
2023-05-21T07:59:19.338Z,20.91
2023-05-21T08:01:46.244Z,21.06
2023-05-21T08:04:12.807Z,20.99
2023-05-21T08:06:39.415Z,20.95
2023-05-21T08:09:06.689Z,21.06
2023-05-21T08:11:33.251Z,21.08
2023-05-21T08:14:00.684Z,21.29
2023-05-21T08:16:27.205Z,21.27
2023-05-21T08:18:53.783Z,21.20
2023-05-21T08:21:23.181Z,21.28
2023-05-21T08:23:52.645Z,21.26
2023-05-21T08:26:19.121Z,21.49
2023-05-21T08:28:45.731Z,21.78
2023-05-21T08:31:12.445Z,22.02
2023-05-21T08:33:39.049Z,22.08
2023-05-21T08:36:06.406Z,22.24
2023-05-21T08:38:33.014Z,22.45
2023-05-21T08:41:00.479Z,22.27
2023-05-21T08:43:28.344Z,22.32
2023-05-21T08:45:56.486Z,22.47
2023-05-21T08:48:24.219Z,22.60
2023-05-21T08:50:52.285Z,22.58
2023-05-21T08:53:27.528Z,22.26
2023-05-21T08:56:02.293Z,22.49
2023-05-21T08:58:29.888Z,22.13
2023-05-21T09:00:56.780Z,22.31
2023-05-21T09:03:24.293Z,22.19
2023-05-21T09:05:53.805Z,22.88
2023-05-21T09:08:25.693Z,22.92
2023-05-21T09:10:52.925Z,22.94
2023-05-21T09:13:20.643Z,23.59
2023-05-21T09:15:47.702Z,23.77
2023-05-21T09:18:14.738Z,23.50
2023-05-21T09:20:41.271Z,23.84
2023-05-21T09:23:12.525Z,23.57
2023-05-21T09:25:39.460Z,23.51
2023-05-21T09:28:12.183Z,23.87
2023-05-21T09:30:47.036Z,24.01
2023-05-21T09:33:27.586Z,24.20
2023-05-21T09:35:54.173Z,24.14
2023-05-21T09:38:26.104Z,24.17
2023-05-21T09:40:56.010Z,24.31
2023-05-21T09:43:22.488Z,24.24
2023-05-21T09:45:53.163Z,24.42
2023-05-21T09:48:42.126Z,24.93
2023-05-21T09:51:10.766Z,24.58
2023-05-21T09:53:42.690Z,24.53
2023-05-21T09:56:09.732Z,24.85
2023-05-21T09:58:36.212Z,24.70
2023-05-21T10:01:02.716Z,24.38
2023-05-21T10:03:31.982Z,24.42
2023-05-21T10:05:59.625Z,24.56
2023-05-21T10:08:27.518Z,24.35
2023-05-21T10:10:53.973Z,25.30
2023-05-21T10:13:24.856Z,25.96
2023-05-21T10:15:57.685Z,26.04
2023-05-21T10:18:24.753Z,26.45
2023-05-21T10:20:51.470Z,25.82
2023-05-21T10:23:21.323Z,25.82
2023-05-21T10:25:49.293Z,25.84
2023-05-21T10:28:19.562Z,26.32
2023-05-21T10:30:46.349Z,26.79
2023-05-21T10:33:16.292Z,27.04
2023-05-21T10:35:44.953Z,26.80
2023-05-21T10:38:12.099Z,26.31
2023-05-21T10:40:38.844Z,26.58
2023-05-21T10:43:30.873Z,26.81
2023-05-21T10:46:08.494Z,26.51
2023-05-21T10:48:56.620Z,26.13
2023-05-21T10:51:29.122Z,25.57
2023-05-21T10:54:09.036Z,25.48
2023-05-21T10:56:54.272Z,26.08
2023-05-21T10:59:33.523Z,26.14
2023-05-21T11:02:00.337Z,26.09
2023-05-21T11:04:27.625Z,26.37
2023-05-21T11:06:54.176Z,26.22
2023-05-21T11:09:20.819Z,26.16
2023-05-21T11:11:57.966Z,25.83
2023-05-21T11:14:56.793Z,25.59
2023-05-21T11:17:44.696Z,25.75
2023-05-21T11:20:15.066Z,25.88
2023-05-21T11:22:41.600Z,26.23
2023-05-21T11:25:08.607Z,26.53
2023-05-21T11:27:42.146Z,26.09
2023-05-21T11:30:14.884Z,26.34
2023-05-21T11:33:11.296Z,26.48
2023-05-21T11:35:49.795Z,26.14
2023-05-21T11:38:17.611Z,26.70
2023-05-21T11:40:54.658Z,26.61
2023-05-21T11:43:21.134Z,27.28
2023-05-21T11:45:47.802Z,27.36
2023-05-21T11:48:14.554Z,27.58
2023-05-21T11:50:42.568Z,27.65
2023-05-21T11:53:09.122Z,27.65
2023-05-21T11:55:40.000Z,27.99
2023-05-21T11:58:08.980Z,27.84
2023-05-21T12:00:40.158Z,27.34
2023-05-21T12:03:12.940Z,27.32
2023-05-21T12:05:49.504Z,27.88
2023-05-21T12:08:25.705Z,27.64
2023-05-21T12:10:59.188Z,27.91
2023-05-21T12:13:28.374Z,27.74
2023-05-21T12:15:54.898Z,27.57
2023-05-21T12:18:21.958Z,27.99
2023-05-21T12:20:48.506Z,28.32
2023-05-21T12:23:24.117Z,28.17
2023-05-21T12:25:51.372Z,27.10
2023-05-21T12:28:17.870Z,27.76
2023-05-21T12:30:44.414Z,27.58
2023-05-21T12:33:12.091Z,27.50
2023-05-21T12:35:38.753Z,27.84
2023-05-21T12:38:05.295Z,27.88
2023-05-21T12:40:39.720Z,28.25
2023-05-21T12:43:07.065Z,27.76
2023-05-21T12:45:33.602Z,27.78
2023-05-21T12:48:03.497Z,28.02
2023-05-21T12:50:30.049Z,27.58
2023-05-21T12:52:58.010Z,27.02
2023-05-21T12:55:26.100Z,27.01
2023-05-21T12:58:03.630Z,27.32
2023-05-21T13:00:30.421Z,27.37
2023-05-21T13:02:59.562Z,27.51
2023-05-21T13:05:28.851Z,27.00
2023-05-21T13:07:55.306Z,27.09
2023-05-21T13:10:21.774Z,27.24
2023-05-21T13:12:48.249Z,27.44
2023-05-21T13:15:15.286Z,27.10
2023-05-21T13:17:41.832Z,27.36
2023-05-21T13:20:15.930Z,27.47
2023-05-21T13:22:43.457Z,27.66
2023-05-21T13:25:15.673Z,27.19
2023-05-21T13:27:43.343Z,27.49
2023-05-21T13:30:11.641Z,27.58
2023-05-21T13:32:40.411Z,27.65
2023-05-21T13:35:07.684Z,27.28
2023-05-21T13:37:37.438Z,27.40
2023-05-21T13:40:11.920Z,27.04
2023-05-21T13:42:38.694Z,27.16
2023-05-21T13:45:06.515Z,26.89
2023-05-21T13:47:33.636Z,27.11
2023-05-21T13:50:00.594Z,26.86
2023-05-21T13:52:27.066Z,27.25
2023-05-21T13:54:53.653Z,27.22
2023-05-21T13:57:20.481Z,26.83
2023-05-21T13:59:46.987Z,26.53
2023-05-21T14:02:14.965Z,26.50
2023-05-21T14:04:41.494Z,26.47
2023-05-21T14:07:08.066Z,27.13
2023-05-21T14:09:34.600Z,26.89
2023-05-21T14:12:01.515Z,26.81
2023-05-21T14:14:28.088Z,26.65
2023-05-21T14:16:54.995Z,26.85
2023-05-21T14:19:21.690Z,26.95
2023-05-21T14:21:48.262Z,26.90
2023-05-21T14:24:14.701Z,27.11
2023-05-21T14:26:41.409Z,27.18
2023-05-21T14:29:08.581Z,27.41
2023-05-21T14:31:35.445Z,27.54
2023-05-21T14:34:02.889Z,27.41
2023-05-21T14:36:29.630Z,27.57
2023-05-21T14:38:59.249Z,27.10
2023-05-21T14:41:26.808Z,27.29
2023-05-21T14:43:53.572Z,27.22
2023-05-21T14:46:20.263Z,27.28
2023-05-21T14:48:46.759Z,26.92
2023-05-21T14:51:13.808Z,27.07
2023-05-21T14:53:41.066Z,27.10
2023-05-21T14:56:07.984Z,27.08
2023-05-21T14:58:34.589Z,27.25
2023-05-21T15:01:02.267Z,27.25
2023-05-21T15:03:28.915Z,27.17
2023-05-21T15:05:55.653Z,27.10
2023-05-21T15:08:22.634Z,26.89
2023-05-21T15:10:49.233Z,27.33
2023-05-21T15:13:15.774Z,27.33
2023-05-21T15:15:42.386Z,27.18
2023-05-21T15:18:08.999Z,26.95
2023-05-21T15:20:35.659Z,27.24
2023-05-21T15:23:16.180Z,27.28
2023-05-21T15:25:45.767Z,26.79
2023-05-21T15:28:12.583Z,26.91
2023-05-21T15:30:39.429Z,26.88
2023-05-21T15:33:06.171Z,26.78
2023-05-21T15:35:32.851Z,27.01
2023-05-21T15:37:59.469Z,26.96
2023-05-21T15:40:27.225Z,27.02
2023-05-21T15:42:54.127Z,27.23
2023-05-21T15:45:20.671Z,27.11
2023-05-21T15:47:47.172Z,27.31
2023-05-21T15:50:13.771Z,27.09
2023-05-21T15:52:42.748Z,27.02
2023-05-21T15:55:09.579Z,27.03
2023-05-21T15:57:36.135Z,27.35
2023-05-21T16:00:02.803Z,27.66
2023-05-21T16:02:29.305Z,27.76
2023-05-21T16:04:55.889Z,28.08
2023-05-21T16:07:23.433Z,27.60
2023-05-21T16:09:50.451Z,27.87
2023-05-21T16:12:19.775Z,27.78
2023-05-21T16:14:49.741Z,28.23
2023-05-21T16:17:16.399Z,28.78
2023-05-21T16:19:42.902Z,28.78
2023-05-21T16:22:10.718Z,28.80
2023-05-21T16:24:37.627Z,28.31
2023-05-21T16:27:04.970Z,28.17
2023-05-21T16:29:31.660Z,28.10
2023-05-21T16:31:58.175Z,27.89
2023-05-21T16:34:24.716Z,27.62
2023-05-21T16:36:51.765Z,27.28
2023-05-21T16:39:18.319Z,26.94
2023-05-21T16:41:44.872Z,26.82
2023-05-21T16:44:11.531Z,26.62
2023-05-21T16:46:38.066Z,26.69
2023-05-21T16:49:04.587Z,26.47
2023-05-21T16:51:31.590Z,26.43
2023-05-21T16:53:58.078Z,26.47
2023-05-21T16:56:24.755Z,26.33
2023-05-21T16:58:51.199Z,26.26
2023-05-21T17:01:17.748Z,25.99
2023-05-21T17:03:44.456Z,25.98
2023-05-21T17:06:10.927Z,25.81
2023-05-21T17:08:37.393Z,25.82
2023-05-21T17:11:03.981Z,25.73
2023-05-21T17:13:30.730Z,25.69
2023-05-21T17:15:57.208Z,25.69
2023-05-21T17:18:23.694Z,25.76
2023-05-21T17:20:50.307Z,25.58
2023-05-21T17:23:16.824Z,25.58
2023-05-21T17:25:43.623Z,25.57
2023-05-21T17:28:11.258Z,25.48
2023-05-21T17:30:37.790Z,25.48
2023-05-21T17:33:04.318Z,25.46
2023-05-21T17:35:30.822Z,25.31
2023-05-21T17:37:59.427Z,25.31
2023-05-21T17:40:25.957Z,25.21
2023-05-21T17:42:53.166Z,25.02
2023-05-21T17:45:20.121Z,24.83
2023-05-21T17:47:46.702Z,24.81
2023-05-21T17:50:13.338Z,24.52
2023-05-21T17:52:39.915Z,24.64
2023-05-21T17:55:07.744Z,24.61
2023-05-21T17:57:35.484Z,24.40
2023-05-21T18:00:02.790Z,24.47
2023-05-21T18:02:29.314Z,24.50
2023-05-21T18:04:55.978Z,24.46
2023-05-21T18:07:22.470Z,24.23
2023-05-21T18:09:49.534Z,24.06
2023-05-21T18:12:16.428Z,24.11
2023-05-21T18:14:42.912Z,24.04
2023-05-21T18:17:09.619Z,24.02
2023-05-21T18:19:37.268Z,23.86
2023-05-21T18:22:04.949Z,23.57
2023-05-21T18:24:31.476Z,23.48
2023-05-21T18:26:58.028Z,23.54
2023-05-21T18:29:24.478Z,23.26
2023-05-21T18:31:51.232Z,23.33
2023-05-21T18:34:17.801Z,23.28
2023-05-21T18:36:44.249Z,23.30
2023-05-21T18:39:10.787Z,23.08
2023-05-21T18:41:38.605Z,22.90
2023-05-21T18:44:06.094Z,22.94
2023-05-21T18:46:32.729Z,22.70
2023-05-21T18:48:59.754Z,22.61
2023-05-21T18:51:26.254Z,22.80
2023-05-21T18:53:52.783Z,22.69
2023-05-21T18:56:19.273Z,22.60
2023-05-21T18:58:45.740Z,22.49
2023-05-21T19:01:12.607Z,22.37
2023-05-21T19:03:40.250Z,22.14
2023-05-21T19:06:06.750Z,22.19
2023-05-21T19:08:33.671Z,22.05
2023-05-21T19:11:00.276Z,22.13
2023-05-21T19:13:26.858Z,21.85
2023-05-21T19:15:53.460Z,21.80
2023-05-21T19:18:20.042Z,21.76
2023-05-21T19:20:46.530Z,21.65
2023-05-21T19:23:16.199Z,21.80
2023-05-21T19:25:42.711Z,21.57
2023-05-21T19:28:09.194Z,21.53
2023-05-21T19:30:36.493Z,21.62
2023-05-21T19:33:03.308Z,21.32
2023-05-21T19:35:30.086Z,21.43
2023-05-21T19:38:00.194Z,21.47
2023-05-21T19:40:27.722Z,21.27
2023-05-21T19:42:54.143Z,21.32
2023-05-21T19:45:21.449Z,21.35
2023-05-21T19:47:48.134Z,21.02
2023-05-21T19:50:14.734Z,20.97
2023-05-21T19:52:41.198Z,20.94
2023-05-21T19:55:10.249Z,21.00
2023-05-21T19:57:37.175Z,21.06
2023-05-21T20:00:05.154Z,21.03
2023-05-21T20:02:31.735Z,20.80
2023-05-21T20:04:59.188Z,20.81
2023-05-21T20:07:25.834Z,20.73
2023-05-21T20:09:52.400Z,20.80
2023-05-21T20:12:19.166Z,20.74
2023-05-21T20:14:46.840Z,20.77
2023-05-21T20:17:14.399Z,20.69
2023-05-21T20:19:41.119Z,20.53
2023-05-21T20:22:07.663Z,20.55
2023-05-21T20:24:34.220Z,20.49
2023-05-21T20:27:01.565Z,20.49
2023-05-21T20:29:28.787Z,20.42
2023-05-21T20:31:55.412Z,20.41
2023-05-21T20:34:24.616Z,20.08
2023-05-21T20:36:54.842Z,20.18
2023-05-21T20:39:22.924Z,20.21
2023-05-21T20:41:49.377Z,20.18
2023-05-21T20:44:18.310Z,20.09
2023-05-21T20:46:44.857Z,19.76
2023-05-21T20:49:11.823Z,19.89
2023-05-21T20:51:38.454Z,19.99
2023-05-21T20:54:09.140Z,20.05
2023-05-21T20:56:42.058Z,19.96
2023-05-21T20:59:10.874Z,19.78
2023-05-21T21:01:38.134Z,19.56
2023-05-21T21:04:05.099Z,19.79
2023-05-21T21:06:31.830Z,19.85
2023-05-21T21:08:58.497Z,19.87
2023-05-21T21:11:25.154Z,19.86
2023-05-21T21:13:51.967Z,19.82
2023-05-21T21:16:18.641Z,19.85
2023-05-21T21:18:46.919Z,19.70
2023-05-21T21:21:13.776Z,19.66
2023-05-21T21:23:40.443Z,19.42
2023-05-21T21:26:07.072Z,19.66
2023-05-21T21:28:33.665Z,19.63
2023-05-21T21:31:00.255Z,19.64
2023-05-21T21:33:26.916Z,19.58
2023-05-21T21:35:53.465Z,19.35
2023-05-21T21:38:19.966Z,19.25
2023-05-21T21:40:46.437Z,19.23
2023-05-21T21:43:12.887Z,19.25
2023-05-21T21:45:39.394Z,19.32
2023-05-21T21:48:06.651Z,19.16
2023-05-21T21:50:33.192Z,19.29
2023-05-21T21:52:59.958Z,19.27
2023-05-21T21:55:26.446Z,19.23
2023-05-21T21:57:52.959Z,19.17
2023-05-21T22:00:20.810Z,19.15
2023-05-21T22:02:47.316Z,19.09
2023-05-21T22:05:16.923Z,19.17
2023-05-21T22:07:47.542Z,19.10
2023-05-21T22:10:15.162Z,19.08
2023-05-21T22:12:42.143Z,19.07
2023-05-21T22:15:11.319Z,18.87
2023-05-21T22:17:38.274Z,18.97
2023-05-21T22:20:05.925Z,18.98
2023-05-21T22:22:32.403Z,18.92
2023-05-21T22:24:58.898Z,18.79
2023-05-21T22:27:25.413Z,18.89
2023-05-21T22:29:51.866Z,18.70
2023-05-21T22:32:21.137Z,18.65
2023-05-21T22:34:50.484Z,18.50
2023-05-21T22:37:17.812Z,18.54
2023-05-21T22:39:44.299Z,18.62
2023-05-21T22:42:11.039Z,18.40
2023-05-21T22:44:37.458Z,18.50
2023-05-21T22:47:04.100Z,18.43
2023-05-21T22:49:32.650Z,18.30
2023-05-21T22:52:05.113Z,18.15
2023-05-21T22:54:32.703Z,18.09
2023-05-21T22:57:00.156Z,18.01
2023-05-21T22:59:26.680Z,18.02
2023-05-21T23:01:54.997Z,18.12
2023-05-21T23:04:35.747Z,18.06
2023-05-21T23:07:09.595Z,17.97
2023-05-21T23:09:36.566Z,18.02
2023-05-21T23:12:03.546Z,18.04
2023-05-21T23:14:30.027Z,17.99
2023-05-21T23:17:02.038Z,17.85
2023-05-21T23:19:29.549Z,17.85
2023-05-21T23:21:56.387Z,17.77
2023-05-21T23:24:22.981Z,17.75
2023-05-21T23:26:49.484Z,17.78
2023-05-21T23:29:15.960Z,17.59
2023-05-21T23:31:42.663Z,17.51
2023-05-21T23:34:09.538Z,17.71
2023-05-21T23:36:36.194Z,17.74
2023-05-21T23:39:02.795Z,17.72
2023-05-21T23:41:29.670Z,17.80
2023-05-21T23:43:56.122Z,17.73
2023-05-21T23:46:22.831Z,17.78
2023-05-21T23:48:49.510Z,17.74
2023-05-21T23:51:16.219Z,17.74
2023-05-21T23:53:42.649Z,17.64
2023-05-21T23:56:09.142Z,17.57
2023-05-21T23:58:35.589Z,17.39
